sensor_id;sensor_type;location;lat;lon;timestamp;temperature;humidity
17066;DHT22;23120;52.336;21.182;2023-04-06T00:02:02;2.10;70.50
17066;DHT22;23120;52.336;21.182;2023-04-06T00:04:31;2.20;70.30
17066;DHT22;23120;52.336;21.182;2023-04-06T00:06:58;2.10;70.60
17066;DHT22;23120;52.336;21.182;2023-04-06T00:09:25;2.10;70.50
17066;DHT22;23120;52.336;21.182;2023-04-06T00:11:52;2.20;70.80
17066;DHT22;23120;52.336;21.182;2023-04-06T00:14:19;2.10;70.70
17066;DHT22;23120;52.336;21.182;2023-04-06T00:16:46;2.10;70.50
17066;DHT22;23120;52.336;21.182;2023-04-06T00:19:13;2.10;70.60
17066;DHT22;23120;52.336;21.182;2023-04-06T00:21:44;2.10;70.70
17066;DHT22;23120;52.336;21.182;2023-04-06T00:24:13;2.10;70.80
17066;DHT22;23120;52.336;21.182;2023-04-06T00:26:40;2.10;70.60
17066;DHT22;23120;52.336;21.182;2023-04-06T00:29:07;2.10;70.70
17066;DHT22;23120;52.336;21.182;2023-04-06T00:31:35;2.10;70.60
17066;DHT22;23120;52.336;21.182;2023-04-06T00:34:05;2.10;70.70
17066;DHT22;23120;52.336;21.182;2023-04-06T00:36:34;2.10;70.80
17066;DHT22;23120;52.336;21.182;2023-04-06T00:39:02;2.10;70.60
17066;DHT22;23120;52.336;21.182;2023-04-06T00:41:34;2.10;70.50
17066;DHT22;23120;52.336;21.182;2023-04-06T00:44:01;2.00;70.60
17066;DHT22;23120;52.336;21.182;2023-04-06T00:46:28;2.10;70.70
17066;DHT22;23120;52.336;21.182;2023-04-06T00:48:56;2.10;70.90
17066;DHT22;23120;52.336;21.182;2023-04-06T00:51:24;2.00;70.70
17066;DHT22;23120;52.336;21.182;2023-04-06T00:53:52;2.00;70.60
17066;DHT22;23120;52.336;21.182;2023-04-06T00:56:21;2.00;70.50
17066;DHT22;23120;52.336;21.182;2023-04-06T00:58:52;2.10;71.30
17066;DHT22;23120;52.336;21.182;2023-04-06T01:01:20;2.10;70.80
17066;DHT22;23120;52.336;21.182;2023-04-06T01:03:49;2.00;70.90
17066;DHT22;23120;52.336;21.182;2023-04-06T01:06:17;2.00;71.00
17066;DHT22;23120;52.336;21.182;2023-04-06T01:08:52;2.00;70.90
17066;DHT22;23120;52.336;21.182;2023-04-06T01:11:23;2.00;71.00
17066;DHT22;23120;52.336;21.182;2023-04-06T01:13:53;2.00;70.60
17066;DHT22;23120;52.336;21.182;2023-04-06T01:16:26;2.00;70.80
17066;DHT22;23120;52.336;21.182;2023-04-06T01:19:11;2.00;71.10
17066;DHT22;23120;52.336;21.182;2023-04-06T01:21:43;2.00;70.90
17066;DHT22;23120;52.336;21.182;2023-04-06T01:24:23;2.10;70.90
17066;DHT22;23120;52.336;21.182;2023-04-06T01:27:10;2.00;70.90
17066;DHT22;23120;52.336;21.182;2023-04-06T01:29:50;2.00;71.00
17066;DHT22;23120;52.336;21.182;2023-04-06T01:32:32;2.00;70.90
17066;DHT22;23120;52.336;21.182;2023-04-06T01:34:59;1.90;71.00
17066;DHT22;23120;52.336;21.182;2023-04-06T01:37:27;2.00;71.10
17066;DHT22;23120;52.336;21.182;2023-04-06T01:39:58;2.00;70.90
17066;DHT22;23120;52.336;21.182;2023-04-06T01:42:38;1.90;71.10
17066;DHT22;23120;52.336;21.182;2023-04-06T01:45:08;1.90;70.90
17066;DHT22;23120;52.336;21.182;2023-04-06T01:47:36;1.90;71.10
17066;DHT22;23120;52.336;21.182;2023-04-06T01:50:04;1.90;71.20
17066;DHT22;23120;52.336;21.182;2023-04-06T01:52:39;1.90;71.30
17066;DHT22;23120;52.336;21.182;2023-04-06T01:55:08;2.00;71.40
17066;DHT22;23120;52.336;21.182;2023-04-06T01:57:52;1.90;71.40
17066;DHT22;23120;52.336;21.182;2023-04-06T02:00:30;1.90;71.40
17066;DHT22;23120;52.336;21.182;2023-04-06T02:02:57;2.00;71.30
17066;DHT22;23120;52.336;21.182;2023-04-06T02:05:28;1.90;71.60
17066;DHT22;23120;52.336;21.182;2023-04-06T02:07:56;1.90;71.80
17066;DHT22;23120;52.336;21.182;2023-04-06T02:10:34;1.90;71.80
17066;DHT22;23120;52.336;21.182;2023-04-06T02:13:10;1.90;71.60
17066;DHT22;23120;52.336;21.182;2023-04-06T02:15:38;1.90;71.60
17066;DHT22;23120;52.336;21.182;2023-04-06T02:18:07;1.80;71.70
17066;DHT22;23120;52.336;21.182;2023-04-06T02:20:35;1.80;72.20
17066;DHT22;23120;52.336;21.182;2023-04-06T02:23:02;1.80;71.80
17066;DHT22;23120;52.336;21.182;2023-04-06T02:25:29;1.80;72.20
17066;DHT22;23120;52.336;21.182;2023-04-06T02:28:03;1.80;72.20
17066;DHT22;23120;52.336;21.182;2023-04-06T02:30:30;1.80;72.20
17066;DHT22;23120;52.336;21.182;2023-04-06T02:32:58;1.80;72.20
17066;DHT22;23120;52.336;21.182;2023-04-06T02:35:31;1.80;72.20
17066;DHT22;23120;52.336;21.182;2023-04-06T02:37:58;1.70;72.20
17066;DHT22;23120;52.336;21.182;2023-04-06T02:40:25;1.70;72.70
17066;DHT22;23120;52.336;21.182;2023-04-06T02:42:55;1.80;72.50
17066;DHT22;23120;52.336;21.182;2023-04-06T02:45:29;1.80;72.30
17066;DHT22;23120;52.336;21.182;2023-04-06T02:47:58;1.70;72.40
17066;DHT22;23120;52.336;21.182;2023-04-06T02:50:26;1.70;72.30
17066;DHT22;23120;52.336;21.182;2023-04-06T02:52:59;1.80;72.20
17066;DHT22;23120;52.336;21.182;2023-04-06T02:55:26;1.60;72.10
17066;DHT22;23120;52.336;21.182;2023-04-06T02:57:53;1.60;72.30
17066;DHT22;23120;52.336;21.182;2023-04-06T03:00:28;1.60;72.30
17066;DHT22;23120;52.336;21.182;2023-04-06T03:02:56;1.60;72.90
17066;DHT22;23120;52.336;21.182;2023-04-06T03:05:25;1.70;72.90
17066;DHT22;23120;52.336;21.182;2023-04-06T03:07:52;1.50;72.80
17066;DHT22;23120;52.336;21.182;2023-04-06T03:10:29;1.50;72.70
17066;DHT22;23120;52.336;21.182;2023-04-06T03:12:56;1.50;73.10
17066;DHT22;23120;52.336;21.182;2023-04-06T03:15:44;1.50;73.40
17066;DHT22;23120;52.336;21.182;2023-04-06T03:18:21;1.40;73.20
17066;DHT22;23120;52.336;21.182;2023-04-06T03:20:49;1.40;73.30
17066;DHT22;23120;52.336;21.182;2023-04-06T03:23:17;1.30;73.40
17066;DHT22;23120;52.336;21.182;2023-04-06T03:25:46;1.30;73.50
17066;DHT22;23120;52.336;21.182;2023-04-06T03:28:17;1.30;73.50
17066;DHT22;23120;52.336;21.182;2023-04-06T03:30:51;1.30;73.50
17066;DHT22;23120;52.336;21.182;2023-04-06T03:33:26;1.30;73.70
17066;DHT22;23120;52.336;21.182;2023-04-06T03:35:54;1.20;73.40
17066;DHT22;23120;52.336;21.182;2023-04-06T03:38:24;1.20;73.90
17066;DHT22;23120;52.336;21.182;2023-04-06T03:40:52;1.20;74.30
17066;DHT22;23120;52.336;21.182;2023-04-06T03:43:24;1.20;74.30
17066;DHT22;23120;52.336;21.182;2023-04-06T03:46:06;1.10;74.70
17066;DHT22;23120;52.336;21.182;2023-04-06T03:48:36;1.10;75.30
17066;DHT22;23120;52.336;21.182;2023-04-06T03:51:05;1.10;74.90
17066;DHT22;23120;52.336;21.182;2023-04-06T03:53:32;1.10;75.30
17066;DHT22;23120;52.336;21.182;2023-04-06T03:55:59;1.20;75.10
17066;DHT22;23120;52.336;21.182;2023-04-06T03:58:27;1.10;75.60
17066;DHT22;23120;52.336;21.182;2023-04-06T04:00:56;1.10;75.20
17066;DHT22;23120;52.336;21.182;2023-04-06T04:03:24;1.00;75.50
17066;DHT22;23120;52.336;21.182;2023-04-06T04:05:53;1.10;75.70
17066;DHT22;23120;52.336;21.182;2023-04-06T04:08:20;1.10;76.20
17066;DHT22;23120;52.336;21.182;2023-04-06T04:10:47;1.00;76.30
17066;DHT22;23120;52.336;21.182;2023-04-06T04:13:14;1.10;76.20
17066;DHT22;23120;52.336;21.182;2023-04-06T04:15:45;1.10;76.20
17066;DHT22;23120;52.336;21.182;2023-04-06T04:18:14;1.00;76.80
17066;DHT22;23120;52.336;21.182;2023-04-06T04:20:44;1.00;76.80
17066;DHT22;23120;52.336;21.182;2023-04-06T04:23:25;1.00;76.80
17066;DHT22;23120;52.336;21.182;2023-04-06T04:25:52;1.00;76.80
17066;DHT22;23120;52.336;21.182;2023-04-06T04:28:19;1.00;76.80
17066;DHT22;23120;52.336;21.182;2023-04-06T04:30:49;1.10;76.80
17066;DHT22;23120;52.336;21.182;2023-04-06T04:33:17;1.10;76.80
17066;DHT22;23120;52.336;21.182;2023-04-06T04:35:47;1.10;76.90
17066;DHT22;23120;52.336;21.182;2023-04-06T04:38:18;1.10;76.90
17066;DHT22;23120;52.336;21.182;2023-04-06T04:40:50;1.10;76.80
17066;DHT22;23120;52.336;21.182;2023-04-06T04:43:17;1.10;76.80
17066;DHT22;23120;52.336;21.182;2023-04-06T04:45:44;1.10;76.80
17066;DHT22;23120;52.336;21.182;2023-04-06T04:48:26;1.10;76.80
17066;DHT22;23120;52.336;21.182;2023-04-06T04:50:58;1.10;76.90
17066;DHT22;23120;52.336;21.182;2023-04-06T04:53:30;1.10;76.90
17066;DHT22;23120;52.336;21.182;2023-04-06T04:56:03;1.20;77.20
17066;DHT22;23120;52.336;21.182;2023-04-06T04:58:31;1.20;77.50
17066;DHT22;23120;52.336;21.182;2023-04-06T05:00:59;1.20;77.50
17066;DHT22;23120;52.336;21.182;2023-04-06T05:03:29;1.20;77.30
17066;DHT22;23120;52.336;21.182;2023-04-06T05:06:00;1.20;77.40
17066;DHT22;23120;52.336;21.182;2023-04-06T05:08:31;1.30;77.00
17066;DHT22;23120;52.336;21.182;2023-04-06T05:10:59;1.30;77.40
17066;DHT22;23120;52.336;21.182;2023-04-06T05:13:47;1.30;77.50
17066;DHT22;23120;52.336;21.182;2023-04-06T05:16:44;1.50;77.30
17066;DHT22;23120;52.336;21.182;2023-04-06T05:19:14;1.40;77.20
17066;DHT22;23120;52.336;21.182;2023-04-06T05:21:46;1.40;77.60
17066;DHT22;23120;52.336;21.182;2023-04-06T05:24:14;1.40;77.10
17066;DHT22;23120;52.336;21.182;2023-04-06T05:26:42;1.50;78.10
17066;DHT22;23120;52.336;21.182;2023-04-06T05:29:18;1.50;77.90
17066;DHT22;23120;52.336;21.182;2023-04-06T05:31:45;1.50;77.50
17066;DHT22;23120;52.336;21.182;2023-04-06T05:34:14;1.60;77.70
17066;DHT22;23120;52.336;21.182;2023-04-06T05:36:41;1.60;77.30
17066;DHT22;23120;52.336;21.182;2023-04-06T05:39:16;1.70;77.40
17066;DHT22;23120;52.336;21.182;2023-04-06T05:41:49;1.70;77.50
17066;DHT22;23120;52.336;21.182;2023-04-06T05:44:25;1.80;77.50
17066;DHT22;23120;52.336;21.182;2023-04-06T05:47:02;1.90;77.30
17066;DHT22;23120;52.336;21.182;2023-04-06T05:49:33;1.90;78.30
17066;DHT22;23120;52.336;21.182;2023-04-06T05:52:01;2.00;77.70
17066;DHT22;23120;52.336;21.182;2023-04-06T05:54:34;2.00;77.60
17066;DHT22;23120;52.336;21.182;2023-04-06T05:57:02;2.10;77.70
17066;DHT22;23120;52.336;21.182;2023-04-06T05:59:30;2.20;78.60
17066;DHT22;23120;52.336;21.182;2023-04-06T06:01:58;2.20;78.80
17066;DHT22;23120;52.336;21.182;2023-04-06T06:04:28;2.30;78.80
17066;DHT22;23120;52.336;21.182;2023-04-06T06:06:57;2.40;78.10
17066;DHT22;23120;52.336;21.182;2023-04-06T06:09:31;2.40;78.10
17066;DHT22;23120;52.336;21.182;2023-04-06T06:12:07;2.50;78.10
17066;DHT22;23120;52.336;21.182;2023-04-06T06:14:34;2.50;77.80
17066;DHT22;23120;52.336;21.182;2023-04-06T06:17:01;2.60;78.30
17066;DHT22;23120;52.336;21.182;2023-04-06T06:19:28;2.60;78.30
17066;DHT22;23120;52.336;21.182;2023-04-06T06:22:01;2.70;77.90
17066;DHT22;23120;52.336;21.182;2023-04-06T06:24:29;2.70;77.10
17066;DHT22;23120;52.336;21.182;2023-04-06T06:26:56;2.80;77.60
17066;DHT22;23120;52.336;21.182;2023-04-06T06:29:26;2.80;77.80
17066;DHT22;23120;52.336;21.182;2023-04-06T06:31:54;2.90;78.40
17066;DHT22;23120;52.336;21.182;2023-04-06T06:34:22;2.90;77.90
17066;DHT22;23120;52.336;21.182;2023-04-06T06:36:49;3.00;77.60
17066;DHT22;23120;52.336;21.182;2023-04-06T06:39:18;3.00;77.90
17066;DHT22;23120;52.336;21.182;2023-04-06T06:41:47;3.10;77.90
17066;DHT22;23120;52.336;21.182;2023-04-06T06:44:14;3.10;77.80
17066;DHT22;23120;52.336;21.182;2023-04-06T06:46:42;3.20;77.90
17066;DHT22;23120;52.336;21.182;2023-04-06T06:49:09;3.20;77.90
17066;DHT22;23120;52.336;21.182;2023-04-06T06:51:37;3.30;77.80
17066;DHT22;23120;52.336;21.182;2023-04-06T06:54:04;3.40;77.80
17066;DHT22;23120;52.336;21.182;2023-04-06T06:56:33;3.40;77.40
17066;DHT22;23120;52.336;21.182;2023-04-06T06:59:01;3.50;77.50
17066;DHT22;23120;52.336;21.182;2023-04-06T07:01:28;3.60;78.60
17066;DHT22;23120;52.336;21.182;2023-04-06T07:03:55;3.60;77.70
17066;DHT22;23120;52.336;21.182;2023-04-06T07:06:22;3.70;78.00
17066;DHT22;23120;52.336;21.182;2023-04-06T07:08:49;3.70;78.00
17066;DHT22;23120;52.336;21.182;2023-04-06T07:11:16;3.80;78.30
17066;DHT22;23120;52.336;21.182;2023-04-06T07:13:44;3.90;76.30
17066;DHT22;23120;52.336;21.182;2023-04-06T07:16:11;4.00;76.30
17066;DHT22;23120;52.336;21.182;2023-04-06T07:18:38;4.10;77.10
17066;DHT22;23120;52.336;21.182;2023-04-06T07:21:05;4.10;76.90
17066;DHT22;23120;52.336;21.182;2023-04-06T07:23:32;4.20;75.90
17066;DHT22;23120;52.336;21.182;2023-04-06T07:25:59;4.20;75.90
17066;DHT22;23120;52.336;21.182;2023-04-06T07:28:26;4.30;76.00
17066;DHT22;23120;52.336;21.182;2023-04-06T07:30:55;4.30;75.30
17066;DHT22;23120;52.336;21.182;2023-04-06T07:33:25;4.30;75.40
17066;DHT22;23120;52.336;21.182;2023-04-06T07:35:55;4.40;75.30
17066;DHT22;23120;52.336;21.182;2023-04-06T07:38:24;4.40;75.70
17066;DHT22;23120;52.336;21.182;2023-04-06T07:40:51;4.50;74.80
17066;DHT22;23120;52.336;21.182;2023-04-06T07:43:18;4.50;74.80
17066;DHT22;23120;52.336;21.182;2023-04-06T07:45:45;4.50;75.00
17066;DHT22;23120;52.336;21.182;2023-04-06T07:48:16;4.50;75.60
17066;DHT22;23120;52.336;21.182;2023-04-06T07:50:44;4.60;75.10
17066;DHT22;23120;52.336;21.182;2023-04-06T07:53:11;4.60;76.20
17066;DHT22;23120;52.336;21.182;2023-04-06T07:55:38;4.70;75.70
17066;DHT22;23120;52.336;21.182;2023-04-06T07:58:05;4.70;76.00
17066;DHT22;23120;52.336;21.182;2023-04-06T08:00:33;4.70;75.10
17066;DHT22;23120;52.336;21.182;2023-04-06T08:03:02;4.80;75.90
17066;DHT22;23120;52.336;21.182;2023-04-06T08:05:31;4.80;76.10
17066;DHT22;23120;52.336;21.182;2023-04-06T08:07:57;4.80;76.70
17066;DHT22;23120;52.336;21.182;2023-04-06T08:10:24;4.90;77.10
17066;DHT22;23120;52.336;21.182;2023-04-06T08:12:52;4.90;77.20
17066;DHT22;23120;52.336;21.182;2023-04-06T08:15:19;5.00;77.20
17066;DHT22;23120;52.336;21.182;2023-04-06T08:17:46;4.90;76.80
17066;DHT22;23120;52.336;21.182;2023-04-06T08:20:13;5.00;77.00
17066;DHT22;23120;52.336;21.182;2023-04-06T08:22:44;5.00;76.50
17066;DHT22;23120;52.336;21.182;2023-04-06T08:25:11;5.10;77.10
17066;DHT22;23120;52.336;21.182;2023-04-06T08:27:38;5.10;77.80
17066;DHT22;23120;52.336;21.182;2023-04-06T08:30:06;5.20;78.00
17066;DHT22;23120;52.336;21.182;2023-04-06T08:32:36;5.10;77.70
17066;DHT22;23120;52.336;21.182;2023-04-06T08:35:35;5.20;77.50
17066;DHT22;23120;52.336;21.182;2023-04-06T08:38:09;5.20;77.90
17066;DHT22;23120;52.336;21.182;2023-04-06T08:40:39;5.30;77.30
17066;DHT22;23120;52.336;21.182;2023-04-06T08:43:13;5.30;77.30
17066;DHT22;23120;52.336;21.182;2023-04-06T08:45:46;5.30;77.20
17066;DHT22;23120;52.336;21.182;2023-04-06T08:48:15;5.30;77.00
17066;DHT22;23120;52.336;21.182;2023-04-06T08:50:42;5.30;77.30
17066;DHT22;23120;52.336;21.182;2023-04-06T08:53:13;5.30;77.30
17066;DHT22;23120;52.336;21.182;2023-04-06T08:55:42;5.30;77.30
17066;DHT22;23120;52.336;21.182;2023-04-06T08:58:10;5.30;77.30
17066;DHT22;23120;52.336;21.182;2023-04-06T09:00:41;5.40;77.60
17066;DHT22;23120;52.336;21.182;2023-04-06T09:03:12;5.40;77.10
17066;DHT22;23120;52.336;21.182;2023-04-06T09:05:39;5.40;76.70
17066;DHT22;23120;52.336;21.182;2023-04-06T09:08:06;5.40;77.40
17066;DHT22;23120;52.336;21.182;2023-04-06T09:10:35;5.50;77.50
17066;DHT22;23120;52.336;21.182;2023-04-06T09:13:04;5.50;77.50
17066;DHT22;23120;52.336;21.182;2023-04-06T09:15:32;5.50;77.40
17066;DHT22;23120;52.336;21.182;2023-04-06T09:18:01;5.50;76.30
17066;DHT22;23120;52.336;21.182;2023-04-06T09:20:28;5.70;76.60
17066;DHT22;23120;52.336;21.182;2023-04-06T09:22:58;5.60;76.60
17066;DHT22;23120;52.336;21.182;2023-04-06T09:25:25;5.60;77.10
17066;DHT22;23120;52.336;21.182;2023-04-06T09:28:02;5.60;76.80
17066;DHT22;23120;52.336;21.182;2023-04-06T09:30:30;5.60;77.60
17066;DHT22;23120;52.336;21.182;2023-04-06T09:32:58;5.60;76.90
17066;DHT22;23120;52.336;21.182;2023-04-06T09:35:25;5.50;77.00
17066;DHT22;23120;52.336;21.182;2023-04-06T09:37:57;5.60;77.60
17066;DHT22;23120;52.336;21.182;2023-04-06T09:40:24;5.50;78.30
17066;DHT22;23120;52.336;21.182;2023-04-06T09:43:04;5.50;78.30
17066;DHT22;23120;52.336;21.182;2023-04-06T09:45:32;5.50;79.00
17066;DHT22;23120;52.336;21.182;2023-04-06T09:47:59;5.60;80.00
17066;DHT22;23120;52.336;21.182;2023-04-06T09:50:27;5.60;79.50
17066;DHT22;23120;52.336;21.182;2023-04-06T09:52:55;5.60;78.50
17066;DHT22;23120;52.336;21.182;2023-04-06T09:55:39;5.60;79.00
17066;DHT22;23120;52.336;21.182;2023-04-06T09:58:12;5.60;78.30
17066;DHT22;23120;52.336;21.182;2023-04-06T10:00:44;5.50;78.90
17066;DHT22;23120;52.336;21.182;2023-04-06T10:03:20;5.50;78.90
17066;DHT22;23120;52.336;21.182;2023-04-06T10:05:54;5.50;78.90
17066;DHT22;23120;52.336;21.182;2023-04-06T10:08:25;5.50;78.90
17066;DHT22;23120;52.336;21.182;2023-04-06T10:10:54;5.50;78.50
17066;DHT22;23120;52.336;21.182;2023-04-06T10:13:23;5.50;79.20
17066;DHT22;23120;52.336;21.182;2023-04-06T10:15:57;5.60;79.60
17066;DHT22;23120;52.336;21.182;2023-04-06T10:18:32;5.50;78.90
17066;DHT22;23120;52.336;21.182;2023-04-06T10:21:03;5.40;79.40
17066;DHT22;23120;52.336;21.182;2023-04-06T10:23:35;5.40;79.40
17066;DHT22;23120;52.336;21.182;2023-04-06T10:26:03;5.40;80.00
17066;DHT22;23120;52.336;21.182;2023-04-06T10:28:42;5.40;80.40
17066;DHT22;23120;52.336;21.182;2023-04-06T10:31:09;5.50;79.90
17066;DHT22;23120;52.336;21.182;2023-04-06T10:33:36;5.40;79.40
17066;DHT22;23120;52.336;21.182;2023-04-06T10:36:22;5.40;80.20
17066;DHT22;23120;52.336;21.182;2023-04-06T10:38:55;5.30;79.40
17066;DHT22;23120;52.336;21.182;2023-04-06T10:41:22;5.30;79.80
17066;DHT22;23120;52.336;21.182;2023-04-06T10:43:59;5.30;80.60
17066;DHT22;23120;52.336;21.182;2023-04-06T10:46:30;5.30;80.80
17066;DHT22;23120;52.336;21.182;2023-04-06T10:48:58;5.30;80.30
17066;DHT22;23120;52.336;21.182;2023-04-06T10:51:28;5.30;80.80
17066;DHT22;23120;52.336;21.182;2023-04-06T10:54:05;5.30;80.60
17066;DHT22;23120;52.336;21.182;2023-04-06T10:56:36;5.20;80.70
17066;DHT22;23120;52.336;21.182;2023-04-06T10:59:08;5.20;80.70
17066;DHT22;23120;52.336;21.182;2023-04-06T11:01:35;5.20;81.20
17066;DHT22;23120;52.336;21.182;2023-04-06T11:04:02;5.20;80.70
17066;DHT22;23120;52.336;21.182;2023-04-06T11:06:30;5.20;80.70
17066;DHT22;23120;52.336;21.182;2023-04-06T11:08:58;5.20;80.70
17066;DHT22;23120;52.336;21.182;2023-04-06T11:11:26;5.20;81.60
17066;DHT22;23120;52.336;21.182;2023-04-06T11:13:54;5.20;80.70
17066;DHT22;23120;52.336;21.182;2023-04-06T11:16:27;5.10;80.60
17066;DHT22;23120;52.336;21.182;2023-04-06T11:18:56;5.10;80.60
17066;DHT22;23120;52.336;21.182;2023-04-06T11:21:34;5.10;81.40
17066;DHT22;23120;52.336;21.182;2023-04-06T11:24:09;5.10;81.40
17066;DHT22;23120;52.336;21.182;2023-04-06T11:26:41;5.10;81.60
17066;DHT22;23120;52.336;21.182;2023-04-06T11:29:09;5.10;81.30
17066;DHT22;23120;52.336;21.182;2023-04-06T11:31:40;5.10;80.70
17066;DHT22;23120;52.336;21.182;2023-04-06T11:34:16;5.10;81.40
17066;DHT22;23120;52.336;21.182;2023-04-06T11:36:44;5.20;82.10
17066;DHT22;23120;52.336;21.182;2023-04-06T11:39:12;5.10;80.70
17066;DHT22;23120;52.336;21.182;2023-04-06T11:41:39;5.10;80.90
17066;DHT22;23120;52.336;21.182;2023-04-06T11:44:13;5.10;80.60
17066;DHT22;23120;52.336;21.182;2023-04-06T11:46:52;5.10;80.60
17066;DHT22;23120;52.336;21.182;2023-04-06T11:49:21;5.00;80.60
17066;DHT22;23120;52.336;21.182;2023-04-06T11:51:48;5.10;81.40
17066;DHT22;23120;52.336;21.182;2023-04-06T11:54:40;5.10;81.00
17066;DHT22;23120;52.336;21.182;2023-04-06T11:57:10;5.10;81.50
17066;DHT22;23120;52.336;21.182;2023-04-06T11:59:37;5.10;81.20
17066;DHT22;23120;52.336;21.182;2023-04-06T12:02:07;5.10;82.20
17066;DHT22;23120;52.336;21.182;2023-04-06T12:04:37;5.20;82.80
17066;DHT22;23120;52.336;21.182;2023-04-06T12:07:04;5.10;81.30
17066;DHT22;23120;52.336;21.182;2023-04-06T12:09:34;5.10;80.90
17066;DHT22;23120;52.336;21.182;2023-04-06T12:12:27;5.20;81.60
17066;DHT22;23120;52.336;21.182;2023-04-06T12:14:55;5.20;80.70
17066;DHT22;23120;52.336;21.182;2023-04-06T12:17:23;5.20;82.10
17066;DHT22;23120;52.336;21.182;2023-04-06T12:19:52;5.20;82.50
17066;DHT22;23120;52.336;21.182;2023-04-06T12:22:24;5.20;80.70
17066;DHT22;23120;52.336;21.182;2023-04-06T12:24:51;5.20;80.70
17066;DHT22;23120;52.336;21.182;2023-04-06T12:27:19;5.20;81.40
17066;DHT22;23120;52.336;21.182;2023-04-06T12:33:51;5.20;80.70
17066;DHT22;23120;52.336;21.182;2023-04-06T12:36:20;5.10;80.60
17066;DHT22;23120;52.336;21.182;2023-04-06T12:38:48;5.20;80.70
17066;DHT22;23120;52.336;21.182;2023-04-06T12:41:16;5.20;81.80
17066;DHT22;23120;52.336;21.182;2023-04-06T12:43:44;5.20;82.00
17066;DHT22;23120;52.336;21.182;2023-04-06T12:46:11;5.20;81.40
17066;DHT22;23120;52.336;21.182;2023-04-06T12:48:38;5.20;82.20
17066;DHT22;23120;52.336;21.182;2023-04-06T12:51:07;5.20;82.30
17066;DHT22;23120;52.336;21.182;2023-04-06T12:53:34;5.20;81.50
17066;DHT22;23120;52.336;21.182;2023-04-06T12:56:02;5.20;81.60
17066;DHT22;23120;52.336;21.182;2023-04-06T12:58:30;5.20;81.80
17066;DHT22;23120;52.336;21.182;2023-04-06T13:04:20;5.20;81.80
17066;DHT22;23120;52.336;21.182;2023-04-06T13:06:50;5.20;82.00
17066;DHT22;23120;52.336;21.182;2023-04-06T13:09:23;5.20;82.20
17066;DHT22;23120;52.336;21.182;2023-04-06T13:11:54;5.10;82.20
17066;DHT22;23120;52.336;21.182;2023-04-06T13:14:24;5.20;81.50
17066;DHT22;23120;52.336;21.182;2023-04-06T13:16:51;5.20;82.40
17066;DHT22;23120;52.336;21.182;2023-04-06T13:19:18;5.20;82.30
17066;DHT22;23120;52.336;21.182;2023-04-06T13:21:45;5.30;83.00
17066;DHT22;23120;52.336;21.182;2023-04-06T13:24:18;5.20;83.00
17066;DHT22;23120;52.336;21.182;2023-04-06T13:26:45;5.20;83.20
17066;DHT22;23120;52.336;21.182;2023-04-06T13:29:13;5.30;83.50
17066;DHT22;23120;52.336;21.182;2023-04-06T13:31:40;5.30;84.10
17066;DHT22;23120;52.336;21.182;2023-04-06T13:34:07;5.30;83.50
17066;DHT22;23120;52.336;21.182;2023-04-06T13:36:34;5.30;83.20
17066;DHT22;23120;52.336;21.182;2023-04-06T13:39:06;5.30;83.40
17066;DHT22;23120;52.336;21.182;2023-04-06T13:41:34;5.30;82.90
17066;DHT22;23120;52.336;21.182;2023-04-06T13:44:01;5.30;83.60
17066;DHT22;23120;52.336;21.182;2023-04-06T13:46:28;5.30;83.30
17066;DHT22;23120;52.336;21.182;2023-04-06T13:48:54;5.30;83.70
17066;DHT22;23120;52.336;21.182;2023-04-06T13:51:21;5.30;83.60
17066;DHT22;23120;52.336;21.182;2023-04-06T13:53:48;5.30;83.90
17066;DHT22;23120;52.336;21.182;2023-04-06T13:56:18;5.30;84.30
17066;DHT22;23120;52.336;21.182;2023-04-06T13:58:46;5.30;84.70
17066;DHT22;23120;52.336;21.182;2023-04-06T14:01:13;5.30;84.00
17066;DHT22;23120;52.336;21.182;2023-04-06T14:03:43;5.30;83.80
17066;DHT22;23120;52.336;21.182;2023-04-06T14:06:13;5.20;83.80
17066;DHT22;23120;52.336;21.182;2023-04-06T14:08:40;5.20;84.20
17066;DHT22;23120;52.336;21.182;2023-04-06T14:11:10;5.20;84.20
17066;DHT22;23120;52.336;21.182;2023-04-06T14:13:37;5.20;84.90
17066;DHT22;23120;52.336;21.182;2023-04-06T14:16:06;5.20;84.70
17066;DHT22;23120;52.336;21.182;2023-04-06T14:18:36;5.20;85.30
17066;DHT22;23120;52.336;21.182;2023-04-06T14:21:04;5.20;85.30
17066;DHT22;23120;52.336;21.182;2023-04-06T14:23:31;5.20;85.40
17066;DHT22;23120;52.336;21.182;2023-04-06T14:26:02;5.20;85.20
17066;DHT22;23120;52.336;21.182;2023-04-06T14:28:30;5.20;85.20
17066;DHT22;23120;52.336;21.182;2023-04-06T14:31:01;5.20;85.40
17066;DHT22;23120;52.336;21.182;2023-04-06T14:33:30;5.20;86.40
17066;DHT22;23120;52.336;21.182;2023-04-06T14:35:56;5.20;85.90
17066;DHT22;23120;52.336;21.182;2023-04-06T14:38:23;5.20;85.90
17066;DHT22;23120;52.336;21.182;2023-04-06T14:40:50;5.20;85.90
17066;DHT22;23120;52.336;21.182;2023-04-06T14:43:17;5.20;85.90
17066;DHT22;23120;52.336;21.182;2023-04-06T14:45:44;5.20;86.60
17066;DHT22;23120;52.336;21.182;2023-04-06T14:48:11;5.20;86.70
17066;DHT22;23120;52.336;21.182;2023-04-06T14:50:40;5.20;87.20
17066;DHT22;23120;52.336;21.182;2023-04-06T14:53:11;5.20;86.90
17066;DHT22;23120;52.336;21.182;2023-04-06T14:55:39;5.20;87.00
17066;DHT22;23120;52.336;21.182;2023-04-06T14:58:07;5.20;86.70
17066;DHT22;23120;52.336;21.182;2023-04-06T15:00:34;5.20;86.40
17066;DHT22;23120;52.336;21.182;2023-04-06T15:03:01;5.20;86.90
17066;DHT22;23120;52.336;21.182;2023-04-06T15:05:28;5.20;87.30
17066;DHT22;23120;52.336;21.182;2023-04-06T15:07:57;5.30;87.40
17066;DHT22;23120;52.336;21.182;2023-04-06T15:10:24;5.20;86.90
17066;DHT22;23120;52.336;21.182;2023-04-06T15:12:51;5.20;87.30
17066;DHT22;23120;52.336;21.182;2023-04-06T15:15:18;5.30;87.50
17066;DHT22;23120;52.336;21.182;2023-04-06T15:17:45;5.30;87.70
17066;DHT22;23120;52.336;21.182;2023-04-06T15:20:12;5.20;87.20
17066;DHT22;23120;52.336;21.182;2023-04-06T15:22:39;5.30;87.80
17066;DHT22;23120;52.336;21.182;2023-04-06T15:25:08;5.30;88.10
17066;DHT22;23120;52.336;21.182;2023-04-06T15:27:35;5.20;88.00
17066;DHT22;23120;52.336;21.182;2023-04-06T15:30:02;5.30;87.90
17066;DHT22;23120;52.336;21.182;2023-04-06T15:32:29;5.30;88.30
17066;DHT22;23120;52.336;21.182;2023-04-06T15:34:57;5.30;88.50
17066;DHT22;23120;52.336;21.182;2023-04-06T15:37:23;5.20;88.30
17066;DHT22;23120;52.336;21.182;2023-04-06T15:39:50;5.20;87.80
17066;DHT22;23120;52.336;21.182;2023-04-06T15:42:19;5.20;87.70
17066;DHT22;23120;52.336;21.182;2023-04-06T15:44:46;5.20;88.40
17066;DHT22;23120;52.336;21.182;2023-04-06T15:47:12;5.20;88.10
17066;DHT22;23120;52.336;21.182;2023-04-06T15:49:40;5.20;87.70
17066;DHT22;23120;52.336;21.182;2023-04-06T15:52:10;5.20;88.10
17066;DHT22;23120;52.336;21.182;2023-04-06T15:54:36;5.20;88.10